createdAt,value
2023-04-16T00:01:45.020Z,15.07
2023-04-16T00:06:47.132Z,15.02
2023-04-16T00:11:49.155Z,15.01
2023-04-16T00:16:54.213Z,14.94
2023-04-16T00:21:56.446Z,14.90
2023-04-16T00:26:58.515Z,14.85
2023-04-16T00:32:06.354Z,14.77
2023-04-16T00:37:08.413Z,14.66
2023-04-16T00:42:10.489Z,14.55
2023-04-16T00:47:12.821Z,14.49
2023-04-16T00:52:15.811Z,14.42
2023-04-16T00:57:23.961Z,14.39
2023-04-16T01:05:15.182Z,14.49
2023-04-16T01:10:17.493Z,14.54
2023-04-16T01:15:20.436Z,14.52
2023-04-16T01:20:23.134Z,14.44
2023-04-16T01:25:25.508Z,14.34
2023-04-16T01:30:27.657Z,14.26
2023-04-16T01:35:41.248Z,14.22
2023-04-16T01:40:43.410Z,14.17
2023-04-16T01:45:45.674Z,14.09
2023-04-16T01:50:48.166Z,14.05
2023-04-16T01:55:50.448Z,14.05
2023-04-16T02:00:53.268Z,14.01
2023-04-16T02:05:55.242Z,13.95
2023-04-16T02:10:59.907Z,13.91
2023-04-16T02:16:02.712Z,13.87
2023-04-16T02:21:33.487Z,13.86
2023-04-16T02:26:43.256Z,13.87
2023-04-16T02:31:50.153Z,13.89
2023-04-16T02:36:52.461Z,13.87
2023-04-16T02:41:54.741Z,13.84
2023-04-16T02:46:56.662Z,13.76
2023-04-16T02:52:03.066Z,13.75
2023-04-16T02:57:06.208Z,13.74
2023-04-16T03:02:08.594Z,13.71
2023-04-16T03:07:12.558Z,13.69
2023-04-16T03:12:14.654Z,13.67
2023-04-16T03:17:16.776Z,13.64
2023-04-16T03:22:19.035Z,13.61
2023-04-16T03:27:24.675Z,13.63
2023-04-16T03:32:27.350Z,13.66
2023-04-16T03:37:30.722Z,13.70
2023-04-16T03:42:33.634Z,13.75
2023-04-16T03:47:35.840Z,13.79
2023-04-16T03:52:39.086Z,13.80
2023-04-16T03:57:41.772Z,13.76
2023-04-16T04:08:55.684Z,13.66
2023-04-16T04:13:57.843Z,13.62
2023-04-16T04:19:00.487Z,13.61
2023-04-16T04:24:40.521Z,13.61
2023-04-16T04:30:23.437Z,13.62
2023-04-16T04:36:06.683Z,13.66
2023-04-16T04:41:10.266Z,13.66
2023-04-16T04:46:18.432Z,13.68
2023-04-16T04:51:20.697Z,13.66
2023-04-16T04:56:22.733Z,13.62
2023-04-16T05:01:24.858Z,13.64
2023-04-16T05:06:31.048Z,13.62
2023-04-16T05:11:34.172Z,13.61
2023-04-16T05:16:37.285Z,13.60
2023-04-16T05:21:39.356Z,13.58
2023-04-16T05:26:41.314Z,13.61
2023-04-16T05:31:43.392Z,13.63
2023-04-16T05:36:45.962Z,13.64
2023-04-16T05:41:48.949Z,13.65
2023-04-16T05:46:51.275Z,13.66
2023-04-16T05:51:53.419Z,13.68
2023-04-16T05:56:55.399Z,13.73
2023-04-16T06:01:57.970Z,13.78
2023-04-16T06:07:01.766Z,13.79
2023-04-16T06:12:16.693Z,13.83
2023-04-16T06:17:19.544Z,13.87
2023-04-16T06:22:21.823Z,13.95
2023-04-16T06:27:23.926Z,14.01
2023-04-16T06:32:26.244Z,14.09
2023-04-16T06:37:28.191Z,14.12
2023-04-16T06:42:30.443Z,14.19
2023-04-16T06:47:32.666Z,14.29
2023-04-16T06:52:35.036Z,14.46
2023-04-16T06:57:37.750Z,14.85
2023-04-16T07:02:40.096Z,15.32
2023-04-16T07:07:42.330Z,15.83
2023-04-16T07:12:44.846Z,16.29
2023-04-16T07:17:47.061Z,16.71
2023-04-16T07:22:49.552Z,17.04
2023-04-16T07:27:51.956Z,17.35
2023-04-16T07:32:55.839Z,17.60
2023-04-16T07:37:58.160Z,17.86
2023-04-16T07:43:00.587Z,18.10
2023-04-16T07:48:02.750Z,18.28
2023-04-16T07:53:07.601Z,18.50
2023-04-16T07:58:09.836Z,18.68
2023-04-16T08:03:12.141Z,18.91
2023-04-16T08:08:14.396Z,19.09
2023-04-16T08:13:21.894Z,19.23
2023-04-16T08:18:23.980Z,19.39
2023-04-16T08:23:26.319Z,19.51
2023-04-16T08:28:28.318Z,19.72
2023-04-16T08:33:30.627Z,19.94
2023-04-16T08:38:32.630Z,20.12
2023-04-16T08:43:38.350Z,20.26
2023-04-16T08:48:43.426Z,20.46
2023-04-16T08:53:54.160Z,20.75
2023-04-16T08:58:58.517Z,20.93
2023-04-16T09:04:03.265Z,21.04
2023-04-16T09:09:12.551Z,21.20
2023-04-16T09:14:14.774Z,21.36
2023-04-16T09:19:17.380Z,21.46
2023-04-16T09:24:20.040Z,21.57
2023-04-16T09:29:41.144Z,21.77
2023-04-16T09:34:59.048Z,21.71
2023-04-16T09:40:03.815Z,21.54
2023-04-16T09:45:15.868Z,21.09
2023-04-16T09:50:20.380Z,20.48
2023-04-16T09:55:27.915Z,20.06
2023-04-16T10:00:33.379Z,19.69
2023-04-16T10:05:35.476Z,19.47
2023-04-16T10:10:38.196Z,19.57
2023-04-16T10:15:40.856Z,19.53
2023-04-16T10:20:43.990Z,19.27
2023-04-16T10:25:47.856Z,19.09
2023-04-16T10:30:55.344Z,19.15
2023-04-16T10:36:26.832Z,19.43
2023-04-16T10:41:29.243Z,19.66
2023-04-16T10:46:41.599Z,19.42
2023-04-16T10:51:53.070Z,19.41
2023-04-16T10:57:00.797Z,19.58
2023-04-16T11:02:18.477Z,19.64
2023-04-16T11:07:31.475Z,19.52
2023-04-16T11:12:44.204Z,19.69
2023-04-16T11:17:47.414Z,19.73
2023-04-16T11:22:50.955Z,19.57
2023-04-16T11:27:53.686Z,19.38
2023-04-16T11:32:55.837Z,19.37
2023-04-16T11:37:58.479Z,19.50
2023-04-16T11:43:12.751Z,19.39
2023-04-16T11:48:14.839Z,19.36
2023-04-16T11:53:16.968Z,19.33
2023-04-16T11:58:20.159Z,19.21
2023-04-16T12:09:26.028Z,19.37
2023-04-16T12:14:28.614Z,19.24
2023-04-16T12:19:30.549Z,19.15
2023-04-16T12:24:32.496Z,19.25
2023-04-16T12:29:34.662Z,19.23
2023-04-16T12:34:51.315Z,19.14
2023-04-16T12:39:54.241Z,19.17
2023-04-16T12:44:56.430Z,19.18
2023-04-16T12:49:59.458Z,19.28
2023-04-16T12:55:02.934Z,19.18
2023-04-16T13:00:16.752Z,19.10
2023-04-16T13:05:19.438Z,19.10
2023-04-16T13:10:23.560Z,19.18
2023-04-16T13:15:25.728Z,19.22
2023-04-16T13:20:28.034Z,19.18
2023-04-16T13:25:31.137Z,19.08
2023-04-16T13:30:33.624Z,19.00
2023-04-16T13:35:35.875Z,19.06
2023-04-16T13:40:38.313Z,18.98
2023-04-16T13:45:40.673Z,18.77
2023-04-16T13:50:43.001Z,18.87
2023-04-16T13:55:45.057Z,18.79
2023-04-16T14:00:47.376Z,18.75
2023-04-16T14:05:49.333Z,18.54
2023-04-16T14:10:51.701Z,18.45
2023-04-16T14:15:54.054Z,18.50
2023-04-16T14:20:56.006Z,18.40
2023-04-16T14:25:58.008Z,18.51
2023-04-16T14:30:59.920Z,18.55
2023-04-16T14:36:03.209Z,18.72
2023-04-16T14:41:30.793Z,18.80
2023-04-16T14:46:33.787Z,18.76
2023-04-16T14:51:35.776Z,18.88
2023-04-16T14:56:37.932Z,18.79
2023-04-16T15:01:40.559Z,18.80
2023-04-16T15:06:55.626Z,18.80
2023-04-16T15:11:58.325Z,18.80
2023-04-16T15:17:00.953Z,18.75
2023-04-16T15:22:03.058Z,18.72
2023-04-16T15:27:08.444Z,18.67
2023-04-16T15:32:11.752Z,18.64
2023-04-16T15:37:22.668Z,18.57
2023-04-16T15:42:24.761Z,18.58
2023-04-16T15:47:26.776Z,18.57
2023-04-16T15:52:28.934Z,18.54
2023-04-16T15:57:31.142Z,18.63
2023-04-16T16:02:34.061Z,18.72
2023-04-16T16:07:36.565Z,18.71
2023-04-16T16:12:39.210Z,18.63
2023-04-16T16:17:41.380Z,18.56
2023-04-16T16:22:45.321Z,18.57
2023-04-16T16:27:47.407Z,18.57
2023-04-16T16:32:49.525Z,18.45
2023-04-16T16:37:55.744Z,18.43
2023-04-16T16:43:04.170Z,18.39
2023-04-16T16:48:06.687Z,18.34
2023-04-16T16:53:08.826Z,18.31
2023-04-16T16:58:11.297Z,18.28
2023-04-16T17:03:13.675Z,18.29
2023-04-16T17:08:15.992Z,18.34
2023-04-16T17:13:44.198Z,18.24
2023-04-16T17:18:52.643Z,18.15
2023-04-16T17:23:58.167Z,18.17
2023-04-16T17:29:04.850Z,18.08
2023-04-16T17:34:07.231Z,18.06
2023-04-16T17:39:09.372Z,18.04
2023-04-16T17:44:11.948Z,18.05
2023-04-16T17:49:14.002Z,17.98
2023-04-16T17:54:16.007Z,17.92
2023-04-16T17:59:18.157Z,17.86
2023-04-16T18:04:20.237Z,17.80
2023-04-16T18:09:22.582Z,17.68
2023-04-16T18:14:27.749Z,17.58
2023-04-16T18:19:32.301Z,17.53
2023-04-16T18:24:36.486Z,17.46
2023-04-16T18:29:40.857Z,17.35
2023-04-16T18:34:43.211Z,17.24
2023-04-16T18:39:45.400Z,17.12
2023-04-16T18:44:54.164Z,16.93
2023-04-16T18:49:56.197Z,16.82
2023-04-16T18:54:58.083Z,16.77
2023-04-16T19:00:00.140Z,16.71
2023-04-16T19:05:02.351Z,16.68
2023-04-16T19:10:07.296Z,16.61
2023-04-16T19:15:09.810Z,16.61
2023-04-16T19:20:11.945Z,16.61
2023-04-16T19:25:14.106Z,16.62
2023-04-16T19:30:16.266Z,16.60
2023-04-16T19:35:18.280Z,16.53
2023-04-16T19:40:20.545Z,16.49
2023-04-16T19:45:26.044Z,16.43
2023-04-16T19:50:31.633Z,16.36
2023-04-16T19:55:33.833Z,16.32
2023-04-16T20:00:43.198Z,16.26
2023-04-16T20:05:48.562Z,16.23
2023-04-16T20:10:54.623Z,16.15
2023-04-16T20:15:57.569Z,16.11
2023-04-16T20:21:04.523Z,16.09
2023-04-16T20:26:06.973Z,16.06
2023-04-16T20:31:09.066Z,16.04
2023-04-16T20:36:10.874Z,16.01
2023-04-16T20:41:20.301Z,16.00
2023-04-16T20:46:30.354Z,15.98
2023-04-16T20:51:33.483Z,16.01
2023-04-16T20:56:39.952Z,16.01
2023-04-16T21:01:52.359Z,16.02
2023-04-16T21:07:20.204Z,16.02
2023-04-16T21:12:24.915Z,16.04
2023-04-16T21:17:27.276Z,16.05
2023-04-16T21:22:29.502Z,16.04
2023-04-16T21:27:32.527Z,16.05
2023-04-16T21:32:34.908Z,16.06
2023-04-16T21:37:37.372Z,16.03
2023-04-16T21:42:42.156Z,15.99
2023-04-16T21:47:44.276Z,15.91
2023-04-16T21:52:46.993Z,15.86
2023-04-16T21:57:49.294Z,15.83
2023-04-16T22:02:51.719Z,15.80
2023-04-16T22:07:54.064Z,15.76
2023-04-16T22:12:56.012Z,15.76
2023-04-16T22:17:58.261Z,15.76
2023-04-16T22:23:00.627Z,15.76
2023-04-16T22:28:06.473Z,15.75
2023-04-16T22:33:08.743Z,15.72
2023-04-16T22:38:11.185Z,15.65
2023-04-16T22:43:13.113Z,15.57
2023-04-16T22:48:15.633Z,15.45
2023-04-16T22:53:18.423Z,15.28
2023-04-16T22:58:22.929Z,15.17
2023-04-16T23:03:28.402Z,15.07
2023-04-16T23:08:30.759Z,14.99
2023-04-16T23:13:38.218Z,14.97
2023-04-16T23:18:40.321Z,14.91
2023-04-16T23:23:42.398Z,14.90
2023-04-16T23:28:44.468Z,14.87
2023-04-16T23:33:46.459Z,14.83
2023-04-16T23:38:48.946Z,14.83
2023-04-16T23:43:50.861Z,14.79
2023-04-16T23:48:55.181Z,14.73
2023-04-16T23:53:58.008Z,14.69
2023-04-16T23:59:00.131Z,14.65
